createdAt,value
2022-07-27T00:00:55.168Z,984.01
2022-07-27T00:01:55.065Z,983.95
2022-07-27T00:02:55.017Z,983.95
2022-07-27T00:03:55.101Z,983.93
2022-07-27T00:04:54.997Z,983.93
2022-07-27T00:05:54.985Z,984.01
2022-07-27T00:06:54.966Z,983.95
2022-07-27T00:07:54.978Z,983.94
2022-07-27T00:08:55.245Z,983.93
2022-07-27T00:09:54.946Z,983.97
2022-07-27T00:10:54.915Z,983.93
2022-07-27T00:11:54.925Z,983.98
2022-07-27T00:12:54.917Z,983.95
2022-07-27T00:13:55.645Z,983.92
2022-07-27T00:14:54.888Z,983.97
2022-07-27T00:15:54.906Z,983.94
2022-07-27T00:16:54.847Z,983.97
2022-07-27T00:17:54.856Z,983.93
2022-07-27T00:18:54.833Z,983.91
2022-07-27T00:19:55.655Z,983.96
2022-07-27T00:20:55.556Z,983.98
2022-07-27T00:21:54.817Z,983.96
2022-07-27T00:22:54.793Z,983.97
2022-07-27T00:23:54.786Z,983.95
2022-07-27T00:24:54.788Z,983.96
2022-07-27T00:25:54.776Z,983.98
2022-07-27T00:26:54.736Z,983.98
2022-07-27T00:27:54.736Z,983.94
2022-07-27T00:28:54.745Z,983.93
2022-07-27T00:29:54.726Z,983.91
2022-07-27T00:30:54.758Z,983.93
2022-07-27T00:31:54.736Z,983.94
2022-07-27T00:32:54.756Z,983.97
2022-07-27T00:33:54.666Z,983.96
2022-07-27T00:34:54.636Z,983.98
2022-07-27T00:35:54.646Z,983.99
2022-07-27T00:36:54.665Z,983.92
2022-07-27T00:37:54.627Z,983.93
2022-07-27T00:38:54.608Z,983.95
2022-07-27T00:39:54.607Z,983.94
2022-07-27T00:40:55.427Z,983.92
2022-07-27T00:41:55.569Z,983.91
2022-07-27T00:42:54.586Z,983.92
2022-07-27T00:43:54.566Z,983.93
2022-07-27T00:44:54.535Z,983.93
2022-07-27T00:45:54.537Z,983.92
2022-07-27T00:46:54.553Z,983.96
2022-07-27T00:47:55.164Z,983.93
2022-07-27T00:48:54.580Z,983.95
2022-07-27T00:49:54.488Z,983.92
2022-07-27T00:50:54.477Z,983.98
2022-07-27T00:51:54.515Z,983.93
2022-07-27T00:52:55.299Z,983.96
2022-07-27T00:53:54.451Z,983.93
2022-07-27T00:54:54.466Z,983.94
2022-07-27T00:55:54.426Z,983.99
2022-07-27T00:56:54.397Z,983.98
2022-07-27T00:57:59.533Z,983.96
2022-07-27T00:58:55.427Z,983.95
2022-07-27T00:59:54.376Z,983.98
2022-07-27T01:00:55.124Z,983.98
2022-07-27T01:01:54.503Z,983.95
2022-07-27T01:02:54.576Z,983.99
2022-07-27T01:03:55.270Z,983.98
2022-07-27T01:04:56.998Z,983.97
2022-07-27T01:05:54.306Z,983.99
2022-07-27T01:06:54.288Z,983.99
2022-07-27T01:07:54.307Z,983.98
2022-07-27T01:08:54.267Z,983.99
2022-07-27T01:09:55.215Z,984.00
2022-07-27T01:10:54.247Z,983.97
2022-07-27T01:11:54.247Z,984.00
2022-07-27T01:12:54.226Z,983.98
2022-07-27T01:13:54.245Z,983.99
2022-07-27T01:14:54.978Z,983.99
2022-07-27T01:15:54.292Z,983.94
2022-07-27T01:16:54.165Z,983.94
2022-07-27T01:17:54.169Z,983.90
2022-07-27T01:18:54.155Z,983.91
2022-07-27T01:19:54.267Z,983.88
2022-07-27T01:20:54.914Z,983.90
2022-07-27T01:21:55.076Z,983.87
2022-07-27T01:22:54.157Z,983.86
2022-07-27T01:23:54.097Z,983.88
2022-07-27T01:24:54.081Z,983.87
2022-07-27T01:25:54.109Z,983.88
2022-07-27T01:26:54.076Z,983.89
2022-07-27T01:27:54.059Z,983.84
2022-07-27T01:28:54.026Z,983.85
2022-07-27T01:29:54.027Z,983.82
2022-07-27T01:30:54.251Z,983.82
2022-07-27T01:31:54.137Z,983.83
2022-07-27T01:32:53.997Z,983.81
2022-07-27T01:33:53.977Z,983.84
2022-07-27T01:34:53.967Z,983.79
2022-07-27T01:35:53.939Z,983.82
2022-07-27T01:36:54.736Z,983.80
2022-07-27T01:37:53.949Z,983.76
2022-07-27T01:38:53.925Z,983.76
2022-07-27T01:39:53.896Z,983.79
2022-07-27T01:40:53.904Z,983.76
2022-07-27T01:41:54.686Z,983.80
2022-07-27T01:42:53.921Z,983.82
2022-07-27T01:43:54.197Z,983.84
2022-07-27T01:44:54.658Z,983.80
2022-07-27T01:45:53.845Z,983.83
2022-07-27T01:46:54.809Z,983.86
2022-07-27T01:47:53.827Z,983.81
2022-07-27T01:48:53.887Z,983.85
2022-07-27T01:49:53.789Z,983.81
2022-07-27T01:50:53.789Z,983.81
2022-07-27T01:51:53.967Z,983.85
2022-07-27T01:52:53.973Z,983.81
2022-07-27T01:53:54.557Z,983.81
2022-07-27T01:54:53.759Z,983.78
2022-07-27T01:55:53.708Z,983.78
2022-07-27T01:56:53.715Z,983.75
2022-07-27T01:57:53.687Z,983.80
2022-07-27T01:58:53.896Z,983.81
2022-07-27T01:59:53.658Z,983.79
2022-07-27T02:00:53.696Z,983.78
2022-07-27T02:01:54.415Z,983.85
2022-07-27T02:02:54.468Z,983.87
2022-07-27T02:03:54.369Z,983.84
2022-07-27T02:04:53.702Z,983.87
2022-07-27T02:05:53.609Z,983.85
2022-07-27T02:06:53.614Z,983.83
2022-07-27T02:07:53.591Z,983.87
2022-07-27T02:08:53.579Z,983.87
2022-07-27T02:09:53.567Z,983.89
2022-07-27T02:10:53.559Z,983.93
2022-07-27T02:11:53.539Z,983.90
2022-07-27T02:12:53.547Z,983.88
2022-07-27T02:13:53.528Z,983.85
2022-07-27T02:14:53.507Z,983.87
2022-07-27T02:15:54.709Z,983.85
2022-07-27T02:16:53.488Z,983.87
2022-07-27T02:17:53.449Z,983.88
2022-07-27T02:18:53.457Z,983.82
2022-07-27T02:19:53.438Z,983.82
2022-07-27T02:20:53.439Z,983.84
2022-07-27T02:21:54.183Z,983.84
2022-07-27T02:22:54.337Z,983.84
2022-07-27T02:23:54.240Z,983.84
2022-07-27T02:24:53.407Z,983.84
2022-07-27T02:25:53.368Z,983.82
2022-07-27T02:26:53.382Z,983.80
2022-07-27T02:27:53.357Z,983.84
2022-07-27T02:28:53.352Z,983.81
2022-07-27T02:29:53.419Z,983.82
2022-07-27T02:30:53.431Z,983.79
2022-07-27T02:31:53.458Z,983.81
2022-07-27T02:32:53.396Z,983.84
2022-07-27T02:33:53.269Z,983.80
2022-07-27T02:34:53.291Z,983.75
2022-07-27T02:35:53.259Z,983.82
2022-07-27T02:36:54.022Z,983.78
2022-07-27T02:37:54.178Z,983.84
2022-07-27T02:38:53.249Z,983.81
2022-07-27T02:39:53.230Z,983.84
2022-07-27T02:40:53.226Z,983.82
2022-07-27T02:41:53.908Z,983.83
2022-07-27T02:42:53.949Z,983.87
2022-07-27T02:43:54.113Z,983.85
2022-07-27T02:44:53.197Z,983.84
2022-07-27T02:45:53.525Z,983.88
2022-07-27T02:46:54.080Z,983.86
2022-07-27T02:47:53.549Z,983.88
2022-07-27T02:48:53.254Z,983.84
2022-07-27T02:49:53.099Z,983.84
2022-07-27T02:50:53.100Z,983.86
2022-07-27T02:51:53.089Z,983.84
2022-07-27T02:52:53.079Z,983.88
2022-07-27T02:53:53.258Z,983.88
2022-07-27T02:54:53.070Z,983.94
2022-07-27T02:55:53.028Z,983.95
2022-07-27T02:56:53.061Z,983.94
2022-07-27T02:57:53.020Z,983.92
2022-07-27T02:58:53.043Z,983.88
2022-07-27T02:59:53.093Z,983.88
2022-07-27T03:00:58.188Z,983.85
2022-07-27T03:01:54.075Z,983.92
2022-07-27T03:02:53.237Z,983.92
2022-07-27T03:03:53.842Z,983.91
2022-07-27T03:04:53.888Z,983.93
2022-07-27T03:05:53.112Z,983.93
2022-07-27T03:06:52.954Z,983.92
2022-07-27T03:07:52.898Z,983.89
2022-07-27T03:08:53.429Z,983.91
2022-07-27T03:09:53.421Z,983.90
2022-07-27T03:10:52.990Z,983.91
2022-07-27T03:11:52.849Z,983.92
2022-07-27T03:12:52.860Z,983.92
2022-07-27T03:13:52.848Z,983.95
2022-07-27T03:14:53.702Z,983.92
2022-07-27T03:15:52.858Z,983.98
2022-07-27T03:16:52.807Z,983.98
2022-07-27T03:17:52.811Z,983.97
2022-07-27T03:18:52.797Z,983.98
2022-07-27T03:19:52.760Z,983.98
2022-07-27T03:20:52.768Z,984.00
2022-07-27T03:21:52.750Z,984.01
2022-07-27T03:22:52.752Z,983.98
2022-07-27T03:23:52.797Z,983.98
2022-07-27T03:24:52.740Z,983.99
2022-07-27T03:25:52.807Z,984.05
2022-07-27T03:26:52.708Z,984.05
2022-07-27T03:27:52.669Z,984.00
2022-07-27T03:28:52.681Z,984.04
2022-07-27T03:29:52.648Z,984.05
2022-07-27T03:30:52.753Z,984.09
2022-07-27T03:31:52.630Z,984.08
2022-07-27T03:32:52.705Z,984.11
2022-07-27T03:33:52.609Z,984.11
2022-07-27T03:34:52.608Z,984.12
2022-07-27T03:35:52.730Z,984.09
2022-07-27T03:36:52.591Z,984.08
2022-07-27T03:37:52.560Z,984.07
2022-07-27T03:38:52.564Z,984.07
2022-07-27T03:39:52.548Z,984.04
2022-07-27T03:40:52.548Z,984.04
2022-07-27T03:41:52.720Z,984.08
2022-07-27T03:42:52.532Z,984.03
2022-07-27T03:43:52.493Z,984.05
2022-07-27T03:44:52.819Z,984.08
2022-07-27T03:45:52.856Z,984.06
2022-07-27T03:46:52.468Z,984.11
2022-07-27T03:47:52.468Z,984.09
2022-07-27T03:48:52.894Z,984.11
2022-07-27T03:49:52.430Z,984.15
2022-07-27T03:50:52.809Z,984.11
2022-07-27T03:51:52.400Z,984.14
2022-07-27T03:52:52.399Z,984.15
2022-07-27T03:53:52.380Z,984.11
2022-07-27T03:54:52.379Z,984.12
2022-07-27T03:55:52.356Z,984.11
2022-07-27T03:56:52.357Z,984.11
2022-07-27T03:57:52.331Z,984.15
2022-07-27T03:58:52.329Z,984.13
2022-07-27T03:59:52.310Z,984.15
2022-07-27T04:00:52.358Z,984.11
2022-07-27T04:01:52.282Z,984.14
2022-07-27T04:02:52.351Z,984.13
2022-07-27T04:03:52.267Z,984.15
2022-07-27T04:04:53.003Z,984.15
2022-07-27T04:05:52.979Z,984.15
2022-07-27T04:06:52.290Z,984.18
2022-07-27T04:07:54.756Z,984.13
2022-07-27T04:08:56.123Z,984.11
2022-07-27T04:09:53.189Z,984.15
2022-07-27T04:10:52.200Z,984.16
2022-07-27T04:11:52.170Z,984.14
2022-07-27T04:12:52.169Z,984.14
2022-07-27T04:13:52.141Z,984.14
2022-07-27T04:14:52.150Z,984.09
2022-07-27T04:15:52.133Z,984.13
2022-07-27T04:16:52.178Z,984.10
2022-07-27T04:17:55.239Z,984.16
2022-07-27T04:18:53.119Z,984.07
2022-07-27T04:19:52.078Z,984.04
2022-07-27T04:20:52.080Z,984.07
2022-07-27T04:21:52.049Z,984.05
2022-07-27T04:22:52.053Z,984.08
2022-07-27T04:23:52.030Z,984.05
2022-07-27T04:24:52.037Z,984.02
2022-07-27T04:25:52.277Z,984.06
2022-07-27T04:26:52.040Z,984.08
2022-07-27T04:27:51.986Z,984.02
2022-07-27T04:28:51.980Z,984.04
2022-07-27T04:29:51.949Z,984.04
2022-07-27T04:30:52.027Z,984.03
2022-07-27T04:31:51.946Z,984.05
2022-07-27T04:32:51.938Z,984.05
2022-07-27T04:33:51.919Z,984.07
2022-07-27T04:34:51.909Z,984.09
2022-07-27T04:35:51.888Z,984.06
2022-07-27T04:36:52.040Z,984.04
2022-07-27T04:37:58.330Z,984.04
2022-07-27T04:38:53.219Z,984.09
2022-07-27T04:39:51.829Z,984.07
2022-07-27T04:40:54.971Z,984.09
2022-07-27T04:41:53.619Z,984.11
2022-07-27T04:42:51.830Z,984.12
2022-07-27T04:43:51.802Z,984.11
2022-07-27T04:44:51.803Z,984.16
2022-07-27T04:45:51.810Z,984.12
2022-07-27T04:46:51.830Z,984.11
2022-07-27T04:47:51.750Z,984.15
2022-07-27T04:48:51.773Z,984.04
2022-07-27T04:49:51.720Z,984.07
2022-07-27T04:50:51.722Z,984.09
2022-07-27T04:51:51.690Z,984.06
2022-07-27T04:52:51.741Z,984.12
2022-07-27T04:53:53.813Z,984.12
2022-07-27T04:54:52.680Z,984.14
2022-07-27T04:55:51.648Z,984.14
2022-07-27T04:56:51.659Z,984.12
2022-07-27T04:57:51.630Z,984.21
2022-07-27T04:58:51.651Z,984.17
2022-07-27T04:59:51.611Z,984.19
2022-07-27T05:00:51.654Z,984.18
2022-07-27T05:01:51.663Z,984.22
2022-07-27T05:02:51.590Z,984.25
2022-07-27T05:03:51.602Z,984.23
2022-07-27T05:04:51.570Z,984.25
2022-07-27T05:05:51.582Z,984.29
2022-07-27T05:06:51.569Z,984.28
2022-07-27T05:07:51.520Z,984.30
2022-07-27T05:08:51.519Z,984.30
2022-07-27T05:09:51.499Z,984.36
2022-07-27T05:10:51.509Z,984.32
2022-07-27T05:11:52.040Z,984.35
2022-07-27T05:12:51.489Z,984.34
2022-07-27T05:13:51.449Z,984.33
2022-07-27T05:14:51.459Z,984.37
2022-07-27T05:15:55.221Z,984.37
2022-07-27T05:16:51.500Z,984.40
2022-07-27T05:17:51.410Z,984.40
2022-07-27T05:18:51.408Z,984.41
2022-07-27T05:19:51.379Z,984.46
2022-07-27T05:20:51.389Z,984.47
2022-07-27T05:21:51.361Z,984.46
2022-07-27T05:22:51.369Z,984.46
2022-07-27T05:23:51.491Z,984.42
2022-07-27T05:24:51.340Z,984.45
2022-07-27T05:25:51.312Z,984.46
2022-07-27T05:26:51.328Z,984.46
2022-07-27T05:27:54.679Z,984.46
2022-07-27T05:28:51.310Z,984.46
2022-07-27T05:29:51.279Z,984.48
2022-07-27T05:30:51.273Z,984.50
2022-07-27T05:31:51.311Z,984.50
2022-07-27T05:32:51.251Z,984.48
2022-07-27T05:33:57.501Z,984.51
2022-07-27T05:34:52.241Z,984.51
2022-07-27T05:35:51.219Z,984.55
2022-07-27T05:36:51.230Z,984.58
2022-07-27T05:37:51.170Z,984.52
2022-07-27T05:38:51.180Z,984.56
2022-07-27T05:39:51.149Z,984.57
2022-07-27T05:40:51.165Z,984.56
2022-07-27T05:41:51.871Z,984.60
2022-07-27T05:42:51.141Z,984.62
2022-07-27T05:43:51.120Z,984.60
2022-07-27T05:44:51.109Z,984.64
2022-07-27T05:45:51.174Z,984.64
2022-07-27T05:46:51.091Z,984.68
2022-07-27T05:47:51.079Z,984.63
2022-07-27T05:48:51.069Z,984.65
2022-07-27T05:49:51.060Z,984.58
2022-07-27T05:50:51.031Z,984.63
2022-07-27T05:51:51.027Z,984.63
2022-07-27T05:52:51.011Z,984.65
2022-07-27T05:53:51.069Z,984.66
2022-07-27T05:54:50.981Z,984.61
2022-07-27T05:55:58.879Z,984.64
2022-07-27T05:56:51.973Z,984.63
2022-07-27T05:57:50.962Z,984.68
2022-07-27T05:58:51.131Z,984.64
2022-07-27T05:59:50.941Z,984.68
2022-07-27T06:00:51.005Z,984.65
2022-07-27T06:01:51.010Z,984.67
2022-07-27T06:02:50.891Z,984.70
2022-07-27T06:03:50.997Z,984.70
2022-07-27T06:04:50.873Z,984.61
2022-07-27T06:05:50.873Z,984.70
2022-07-27T06:06:50.841Z,984.65
2022-07-27T06:07:50.862Z,984.69
2022-07-27T06:08:50.842Z,984.70
2022-07-27T06:09:50.830Z,984.72
2022-07-27T06:10:50.800Z,984.72
2022-07-27T06:11:50.800Z,984.73
2022-07-27T06:12:50.780Z,984.65
2022-07-27T06:13:50.780Z,984.67
2022-07-27T06:14:51.186Z,984.66
2022-07-27T06:15:50.775Z,984.69
2022-07-27T06:16:50.811Z,984.74
2022-07-27T06:17:50.732Z,984.70
2022-07-27T06:18:50.718Z,984.75
2022-07-27T06:19:50.711Z,984.76
2022-07-27T06:20:50.683Z,984.74
2022-07-27T06:21:53.776Z,984.77
2022-07-27T06:22:50.670Z,984.78
2022-07-27T06:23:50.662Z,984.77
2022-07-27T06:24:50.642Z,984.78
2022-07-27T06:25:50.654Z,984.79
2022-07-27T06:26:50.623Z,984.80
2022-07-27T06:27:51.373Z,984.81
2022-07-27T06:28:51.455Z,984.80
2022-07-27T06:29:50.621Z,984.81
2022-07-27T06:30:50.572Z,984.82
2022-07-27T06:31:50.649Z,984.82
2022-07-27T06:32:50.553Z,984.84
2022-07-27T06:33:52.276Z,984.81
2022-07-27T06:34:50.532Z,984.85
2022-07-27T06:35:50.532Z,984.85
2022-07-27T06:36:50.503Z,984.84
2022-07-27T06:37:50.511Z,984.85
2022-07-27T06:38:50.483Z,984.82
2022-07-27T06:39:50.522Z,984.85
2022-07-27T06:40:50.463Z,984.84
2022-07-27T06:41:56.172Z,984.83
2022-07-27T06:42:51.464Z,984.85
2022-07-27T06:43:50.464Z,984.86
2022-07-27T06:44:50.446Z,984.91
2022-07-27T06:45:50.434Z,984.88
2022-07-27T06:46:50.439Z,984.88
2022-07-27T06:47:50.401Z,984.91
2022-07-27T06:48:51.351Z,984.93
2022-07-27T06:49:51.237Z,984.87
2022-07-27T06:50:50.385Z,984.94
2022-07-27T06:51:50.372Z,984.93
2022-07-27T06:52:50.323Z,984.93
2022-07-27T06:53:50.333Z,984.95
2022-07-27T06:54:50.297Z,984.91
2022-07-27T06:55:50.313Z,984.97
2022-07-27T06:56:50.283Z,984.91
2022-07-27T06:57:50.283Z,984.92
2022-07-27T06:58:50.255Z,984.95
2022-07-27T06:59:50.263Z,984.93
2022-07-27T07:00:50.301Z,984.93
2022-07-27T07:01:50.233Z,984.91
2022-07-27T07:02:50.243Z,984.92
2022-07-27T07:03:50.302Z,984.90
2022-07-27T07:04:50.183Z,984.88
2022-07-27T07:05:50.864Z,984.93
2022-07-27T07:06:50.167Z,984.89
2022-07-27T07:07:50.176Z,984.92
2022-07-27T07:08:50.957Z,985.00
2022-07-27T07:09:50.165Z,984.95
2022-07-27T07:10:50.334Z,985.00
2022-07-27T07:11:50.913Z,984.96
2022-07-27T07:12:50.105Z,984.97
2022-07-27T07:13:50.282Z,984.97
2022-07-27T07:14:50.115Z,984.97
2022-07-27T07:15:50.839Z,984.93
2022-07-27T07:16:50.196Z,984.94
2022-07-27T07:17:50.061Z,984.95
2022-07-27T07:18:52.485Z,984.93
2022-07-27T07:19:50.023Z,984.92
2022-07-27T07:20:50.010Z,984.97
2022-07-27T07:21:50.725Z,984.95
2022-07-27T07:22:50.875Z,984.97
2022-07-27T07:23:49.999Z,984.95
2022-07-27T07:24:49.954Z,984.95
2022-07-27T07:25:50.008Z,984.92
2022-07-27T07:26:50.759Z,984.97
2022-07-27T07:27:50.009Z,984.96
2022-07-27T07:28:49.931Z,984.99
2022-07-27T07:29:50.718Z,984.96
2022-07-27T07:30:49.915Z,984.94
2022-07-27T07:31:49.947Z,984.97
2022-07-27T07:32:49.892Z,984.98
2022-07-27T07:33:50.601Z,984.98
2022-07-27T07:34:49.856Z,984.97
2022-07-27T07:36:13.761Z,984.97
2022-07-27T07:36:50.826Z,984.99
2022-07-27T07:37:50.546Z,985.01
2022-07-27T07:38:50.596Z,984.98
2022-07-27T07:39:50.075Z,985.03
2022-07-27T07:40:50.036Z,985.04
2022-07-27T07:41:50.596Z,985.02
2022-07-27T07:42:49.785Z,985.01
2022-07-27T07:43:49.767Z,985.00
2022-07-27T07:44:49.888Z,984.98
2022-07-27T07:45:51.562Z,984.97
2022-07-27T07:46:49.749Z,984.99
2022-07-27T07:47:49.716Z,984.99
2022-07-27T07:48:49.770Z,984.98
2022-07-27T07:49:50.648Z,985.00
2022-07-27T07:50:51.287Z,984.96
2022-07-27T07:51:49.686Z,984.98
2022-07-27T07:52:49.660Z,984.97
2022-07-27T07:53:49.646Z,985.00
2022-07-27T07:54:49.636Z,984.98
2022-07-27T07:55:49.640Z,984.99
2022-07-27T07:56:49.626Z,984.99
2022-07-27T07:57:50.815Z,984.99
2022-07-27T07:58:49.588Z,984.99
2022-07-27T07:59:50.357Z,984.95
2022-07-27T08:00:49.582Z,984.90
2022-07-27T08:01:49.681Z,984.92
2022-07-27T08:02:49.745Z,984.95
2022-07-27T08:03:51.247Z,984.92
2022-07-27T08:04:49.508Z,984.92
2022-07-27T08:05:49.522Z,984.93
2022-07-27T08:06:50.237Z,984.92
2022-07-27T08:07:49.508Z,984.91
2022-07-27T08:08:49.470Z,984.89
2022-07-27T08:09:50.207Z,984.94
2022-07-27T08:10:49.476Z,984.93
2022-07-27T08:11:49.459Z,985.01
2022-07-27T08:12:49.429Z,984.95
2022-07-27T08:13:49.454Z,984.99
2022-07-27T08:14:50.244Z,985.00
2022-07-27T08:15:49.521Z,984.96
2022-07-27T08:16:49.369Z,984.98
2022-07-27T08:17:49.369Z,984.98
2022-07-27T08:18:49.358Z,984.97
2022-07-27T08:19:49.419Z,984.96
2022-07-27T08:20:49.478Z,984.99
2022-07-27T08:21:49.353Z,985.02
2022-07-27T08:22:50.240Z,985.02
2022-07-27T08:23:49.309Z,985.05
2022-07-27T08:24:49.282Z,985.05
2022-07-27T08:25:49.278Z,985.06
2022-07-27T08:26:49.260Z,985.07
2022-07-27T08:27:50.011Z,985.06
2022-07-27T08:28:50.172Z,985.07
2022-07-27T08:29:51.849Z,985.08
2022-07-27T08:30:49.989Z,985.09
2022-07-27T08:31:52.876Z,985.07
2022-07-27T08:32:49.230Z,985.09
2022-07-27T08:33:49.960Z,985.06
2022-07-27T08:34:50.110Z,985.06
2022-07-27T08:35:49.175Z,985.08
2022-07-27T08:36:49.149Z,985.07
2022-07-27T08:37:49.166Z,985.02
2022-07-27T08:38:49.175Z,985.08
2022-07-27T08:40:50.228Z,985.04
2022-07-27T08:41:49.951Z,985.06
2022-07-27T08:42:49.237Z,985.11
2022-07-27T08:43:50.020Z,985.10
2022-07-27T08:44:49.751Z,985.06
2022-07-27T08:45:49.827Z,985.08
2022-07-27T08:46:49.068Z,985.08
2022-07-27T08:47:49.031Z,985.01
2022-07-27T08:48:49.101Z,985.01
2022-07-27T08:49:49.895Z,985.00
2022-07-27T08:50:49.003Z,985.04
2022-07-27T08:51:49.022Z,984.98
2022-07-27T08:52:48.972Z,984.96
2022-07-27T08:53:53.391Z,985.03
2022-07-27T08:54:49.942Z,985.09
2022-07-27T08:55:49.093Z,985.07
2022-07-27T08:56:48.934Z,985.06
2022-07-27T08:57:48.922Z,985.12
2022-07-27T08:58:48.910Z,985.06
2022-07-27T08:59:48.904Z,985.06
2022-07-27T09:00:48.883Z,985.09
2022-07-27T09:01:49.901Z,985.05
2022-07-27T09:03:02.594Z,985.09
2022-07-27T09:03:48.977Z,985.05
2022-07-27T09:04:48.842Z,985.08
2022-07-27T09:05:48.833Z,985.03
2022-07-27T09:06:53.223Z,985.06
2022-07-27T09:07:49.822Z,985.02
2022-07-27T09:08:53.113Z,984.98
2022-07-27T09:09:48.791Z,984.99
2022-07-27T09:10:48.825Z,985.01
2022-07-27T09:11:49.636Z,985.03
2022-07-27T09:12:48.763Z,985.01
2022-07-27T09:13:48.913Z,985.02
2022-07-27T09:14:52.999Z,984.98
2022-07-27T09:16:16.260Z,984.96
2022-07-27T09:17:50.706Z,985.04
2022-07-27T09:18:48.883Z,985.04
2022-07-27T09:19:48.674Z,985.03
2022-07-27T09:20:48.678Z,985.00
2022-07-27T09:21:48.670Z,985.03
2022-07-27T09:22:48.635Z,985.02
2022-07-27T09:23:49.503Z,985.07
2022-07-27T09:24:48.631Z,985.03
2022-07-27T09:26:04.145Z,985.02
2022-07-27T09:26:49.583Z,985.05
2022-07-27T09:27:49.387Z,985.06
2022-07-27T09:28:48.746Z,985.07
2022-07-27T09:29:48.564Z,985.07
2022-07-27T09:30:48.553Z,985.08
2022-07-27T09:31:49.293Z,985.07
2022-07-27T09:32:52.744Z,985.09
2022-07-27T09:33:49.395Z,985.11
2022-07-27T09:34:48.503Z,985.05
2022-07-27T09:35:48.496Z,985.11
2022-07-27T09:36:48.574Z,985.12
2022-07-27T09:37:48.584Z,985.13
2022-07-27T09:38:53.566Z,985.07
2022-07-27T09:39:50.287Z,985.10
2022-07-27T09:40:48.631Z,985.11
2022-07-27T09:41:48.653Z,985.09
2022-07-27T09:43:07.350Z,985.07
2022-07-27T09:44:29.871Z,985.12
2022-07-27T09:44:53.610Z,985.16
2022-07-27T09:45:51.564Z,985.18
2022-07-27T09:46:48.472Z,985.17
2022-07-27T09:47:48.363Z,985.14
2022-07-27T09:48:48.388Z,985.16
2022-07-27T09:49:48.346Z,985.12
2022-07-27T09:51:01.497Z,985.09
2022-07-27T09:51:59.924Z,985.06
2022-07-27T09:52:50.051Z,985.06
2022-07-27T09:53:49.189Z,985.04
2022-07-27T09:54:48.276Z,985.04
2022-07-27T09:55:48.277Z,985.05
2022-07-27T09:56:48.768Z,985.09
2022-07-27T09:57:49.057Z,985.02
2022-07-27T09:58:48.230Z,985.02
2022-07-27T09:59:48.218Z,985.02
2022-07-27T10:00:48.218Z,985.02
2022-07-27T10:01:54.325Z,985.06
2022-07-27T10:02:49.234Z,985.07
2022-07-27T10:03:48.178Z,985.01
2022-07-27T10:04:48.322Z,985.01
2022-07-27T10:05:48.159Z,985.07
2022-07-27T10:07:02.304Z,985.06
2022-07-27T10:07:49.183Z,985.06
2022-07-27T10:08:48.137Z,985.07
2022-07-27T10:09:48.105Z,985.08
2022-07-27T10:10:48.106Z,985.12
2022-07-27T10:11:48.088Z,985.14
2022-07-27T10:12:54.041Z,985.13
2022-07-27T10:13:49.828Z,985.13
2022-07-27T10:14:48.088Z,985.09
2022-07-27T10:15:48.299Z,985.06
2022-07-27T10:16:48.057Z,985.08
2022-07-27T10:17:48.020Z,985.04
2022-07-27T10:18:50.817Z,985.08
2022-07-27T10:19:48.999Z,985.07
2022-07-27T10:20:48.024Z,985.02
2022-07-27T10:21:47.977Z,985.04
2022-07-27T10:22:47.978Z,984.98
2022-07-27T10:23:48.866Z,985.01
2022-07-27T10:24:53.041Z,984.99
2022-07-27T10:25:48.940Z,984.98
2022-07-27T10:26:47.942Z,984.95
2022-07-27T10:27:47.901Z,984.94
2022-07-27T10:28:47.902Z,984.89
2022-07-27T10:29:47.880Z,984.89
2022-07-27T10:30:54.069Z,984.90
2022-07-27T10:31:48.870Z,984.90
2022-07-27T10:32:47.877Z,984.88
2022-07-27T10:33:48.682Z,984.91
2022-07-27T10:34:47.890Z,984.97
2022-07-27T10:35:47.830Z,984.97
2022-07-27T10:36:47.812Z,985.01
2022-07-27T10:37:47.811Z,985.01
2022-07-27T10:38:47.822Z,984.95
2022-07-27T10:39:47.772Z,984.86
2022-07-27T10:40:47.772Z,984.87
2022-07-27T10:41:47.752Z,984.83
2022-07-27T10:42:53.565Z,984.85
2022-07-27T10:43:48.732Z,984.79
2022-07-27T10:44:47.743Z,984.76
2022-07-27T10:46:00.206Z,984.86
2022-07-27T10:46:49.493Z,984.87
2022-07-27T10:47:47.692Z,984.89
2022-07-27T10:48:49.159Z,984.89
2022-07-27T10:49:47.683Z,984.91
2022-07-27T10:50:47.663Z,984.91
2022-07-27T10:51:47.664Z,984.92
2022-07-27T10:52:47.634Z,984.94
2022-07-27T10:54:53.567Z,984.97
2022-07-27T10:55:49.373Z,984.97
2022-07-27T10:56:47.734Z,984.98
2022-07-27T10:57:47.578Z,984.95
2022-07-27T10:58:47.599Z,984.99
2022-07-27T11:00:53.599Z,985.04
2022-07-27T11:01:48.659Z,985.07
2022-07-27T11:02:47.523Z,985.06
2022-07-27T11:03:47.515Z,985.05
2022-07-27T11:04:47.518Z,985.07
2022-07-27T11:06:01.017Z,985.13
2022-07-27T11:07:23.153Z,985.07
2022-07-27T11:08:13.749Z,985.10
2022-07-27T11:09:08.518Z,985.13
2022-07-27T11:10:03.644Z,985.07
2022-07-27T11:10:48.559Z,985.08
2022-07-27T11:11:47.408Z,985.06
2022-07-27T11:12:47.443Z,985.10
2022-07-27T11:13:47.885Z,985.08
2022-07-27T11:14:48.358Z,985.01
2022-07-27T11:15:47.607Z,985.05
2022-07-27T11:16:55.637Z,984.99
2022-07-27T11:17:57.732Z,985.04
2022-07-27T11:18:53.046Z,985.02
2022-07-27T11:19:48.405Z,984.97
2022-07-27T11:20:47.328Z,984.99
2022-07-27T11:21:47.288Z,985.02
2022-07-27T11:23:51.268Z,984.95
2022-07-27T11:24:47.288Z,984.98
2022-07-27T11:25:47.248Z,984.99
2022-07-27T11:26:47.251Z,984.97
2022-07-27T11:27:47.228Z,985.00
2022-07-27T11:28:47.228Z,985.01
2022-07-27T11:29:47.208Z,984.99
2022-07-27T11:30:47.294Z,984.99
2022-07-27T11:31:56.687Z,985.00
2022-07-27T11:32:48.189Z,985.01
2022-07-27T11:33:47.169Z,984.98
2022-07-27T11:34:47.198Z,985.01
2022-07-27T11:35:48.099Z,984.99
2022-07-27T11:36:47.151Z,985.00
2022-07-27T11:37:47.119Z,984.97
2022-07-27T11:38:47.138Z,984.93
2022-07-27T11:40:07.563Z,985.00
2022-07-27T11:40:57.963Z,984.96
2022-07-27T11:42:08.688Z,984.95
2022-07-27T11:42:48.109Z,984.91
2022-07-27T11:43:47.050Z,984.87
2022-07-27T11:44:47.052Z,984.84
2022-07-27T11:45:47.105Z,984.83
2022-07-27T11:46:47.038Z,984.84
2022-07-27T11:47:47.018Z,984.81
2022-07-27T11:49:05.345Z,984.87
2022-07-27T11:49:48.092Z,984.86
2022-07-27T11:50:46.990Z,984.89
2022-07-27T11:51:46.966Z,984.86
2022-07-27T11:52:46.960Z,984.82
2022-07-27T11:53:46.972Z,984.80
2022-07-27T11:54:46.949Z,984.75
2022-07-27T11:55:46.938Z,984.76
2022-07-27T11:56:46.921Z,984.71
2022-07-27T11:57:46.903Z,984.73
2022-07-27T11:58:46.892Z,984.67
2022-07-27T11:59:46.875Z,984.77
2022-07-27T12:00:46.883Z,984.76
2022-07-27T12:01:46.843Z,984.78
2022-07-27T12:02:46.940Z,984.83
2022-07-27T12:03:47.850Z,984.81
2022-07-27T12:04:46.923Z,984.83
2022-07-27T12:05:46.823Z,984.83
2022-07-27T12:06:46.823Z,984.78
2022-07-27T12:07:46.783Z,984.80
2022-07-27T12:08:46.783Z,984.78
2022-07-27T12:09:46.766Z,984.76
2022-07-27T12:10:46.764Z,984.74
2022-07-27T12:11:46.746Z,984.75
2022-07-27T12:12:46.754Z,984.76
2022-07-27T12:13:46.714Z,984.83
2022-07-27T12:14:46.763Z,984.81
2022-07-27T12:15:47.142Z,984.82
2022-07-27T12:16:46.735Z,984.78
2022-07-27T12:17:46.825Z,984.77
2022-07-27T12:18:46.684Z,984.75
2022-07-27T12:19:46.654Z,984.77
2022-07-27T12:20:46.657Z,984.74
2022-07-27T12:21:48.493Z,984.81
2022-07-27T12:22:46.638Z,984.76
2022-07-27T12:23:46.644Z,984.75
2022-07-27T12:24:46.638Z,984.75
2022-07-27T12:25:46.594Z,984.73
2022-07-27T12:26:46.587Z,984.67
2022-07-27T12:27:46.566Z,984.72
2022-07-27T12:28:46.569Z,984.78
2022-07-27T12:29:46.548Z,984.77
2022-07-27T12:30:46.625Z,984.79
2022-07-27T12:31:46.517Z,984.70
2022-07-27T12:32:46.532Z,984.71
2022-07-27T12:33:48.184Z,984.68